(°C)
23°
22°
22°
21°
21°
21°
20°
(°C)
21°
21°
20°
20°
20°
20°
20°
SV
VSV
VSV
V
V
VJV
VJV
(km/h)
9-22
9-22
9-23
9-23
10-23
9-23
9-22
(mm)
0
0
0
0
0
0
0
(%)
0
0
0
0
0
0
0

Sun elevation

/ -25.4°
sun-icon
UV 9
06:43
20:09
Ubúdajúci kosáčik (324°)
05:11
17:36

METAR for Tampa (KTPF)

Čas Conditions Teplota/
Rosný bod
Vietor Viditeľnosť Počasie Oblaky Tlak Change Raw
VFR 24°C / 11°C 20º 5kt >10km - Scattered Clouds 8000ft - KTPF 090155Z AUTO 02005KT 10SM SCT080 BKN100 OVC110 24/11 A3009 RMK AO2
VFR 24°C / 11°C 10º 6kt >10km - Overcast 10000ft - KTPF 090135Z AUTO 01006KT 10SM OVC100 24/11 A3009 RMK AO2
VFR 25°C / 10°C 10º 6kt >10km - Broken Clouds 9000ft - KTPF 090115Z AUTO 01006KT 10SM BKN090 OVC120 25/10 A3008 RMK AO2
VFR 25°C / 10°C 10º 5kt >10km - Broken Clouds 9000ft - KTPF 090055Z AUTO 01005KT 10SM BKN090 OVC120 25/10 A3008 RMK AO2
VFR 25°C / 10°C 360º 7kt >10km - Scattered Clouds 7000ft - KTPF 090035Z AUTO 36007KT 10SM SCT070 BKN100 OVC120 25/10 A3008 RMK AO2
VFR 25°C / 10°C 360º 6kt >10km - Overcast 11000ft - KTPF 090015Z AUTO 36006KT 10SM OVC110 25/10 A3007 RMK AO2
VFR 26°C / 10°C 350º 7kt >10km - Overcast 11000ft - KTPF 082355Z AUTO 35007KT 10SM OVC110 26/10 A3006 RMK AO2
VFR 27°C / 11°C 330º 6kt >10km - Overcast 10000ft - KTPF 082335Z AUTO 33006KT 10SM OVC100 27/11 A3006 RMK AO2
VFR 28°C / 11°C 320º 7kt >10km - Overcast 11000ft - KTPF 082315Z AUTO 32007KT 10SM OVC110 28/11 A3005 RMK AO2
VFR 28°C / 12°C 300º 4kt >10km - Broken Clouds 11000ft - KTPF 082255Z AUTO 30004KT 10SM BKN110 28/12 A3005 RMK AO2
VFR 29°C / 12°C 280º 6kt >10km - Scattered Clouds 9500ft - KTPF 082235Z AUTO 28006KT 10SM SCT095 BKN110 29/12 A3004 RMK AO2
VFR 29°C / 12°C 280º 6kt >10km - Overcast 11000ft - KTPF 082215Z AUTO 28006KT 10SM OVC110 29/12 A3004 RMK AO2
VFR 30°C / 12°C 280º 6kt >10km - Broken Clouds 11000ft - KTPF 082155Z AUTO 28006KT 10SM BKN110 30/12 A3005 RMK AO2
VFR 30°C / 12°C 280º 7kt >10km - Scattered Clouds 8000ft - KTPF 082135Z AUTO 28007KT 10SM SCT080 BKN095 OVC110 30/12 A3005 RMK AO2
VFR 30°C / 11°C 270º 7kt >10km - Scattered Clouds 7500ft - KTPF 082115Z AUTO 27007KT 10SM SCT075 BKN095 OVC110 30/11 A3005 RMK AO2
VFR 30°C / 11°C 260º 6kt >10km - Overcast 9500ft - KTPF 082055Z AUTO 26006KT 10SM OVC095 30/11 A3005 RMK AO2
VFR 31°C / 11°C 250º 4kt >10km - Overcast 10000ft - KTPF 082035Z AUTO 25004KT 10SM OVC100 31/11 A3005 RMK AO2
VFR 31°C / 11°C 220º 3kt >10km - Overcast 10000ft - KTPF 082015Z AUTO 22003KT 10SM OVC100 31/11 A3005 RMK AO2
VFR 31°C / 10°C variable 0kt >10km - Overcast 10000ft - KTPF 081955Z AUTO 00000KT 10SM OVC100 31/10 A3006 RMK AO2
VFR 31°C / 9°C 120º 5kt >10km - Overcast 9500ft - KTPF 081935Z AUTO 12005KT 10SM OVC095 31/09 A3006 RMK AO2
VFR 31°C / 10°C 50º 6kt >10km - Broken Clouds 9500ft - KTPF 081915Z AUTO 05006KT 10SM BKN095 31/10 A3008 RMK AO2
VFR 31°C / 11°C variable 0kt >10km - Scattered Clouds 9500ft - KTPF 081855Z AUTO 00000KT 10SM SCT095 31/11 A3009 RMK AO2
VFR 31°C / 12°C 220º 6kt >10km - Broken Clouds 9500ft - KTPF 081835Z AUTO 22006KT 10SM BKN095 OVC120 31/12 A3009 RMK AO2
VFR 30°C / 11°C 200º 4kt >10km - Scattered Clouds 7000ft - KTPF 081815Z AUTO 20004KT 10SM SCT070 OVC095 30/11 A3010 RMK AO2

VFR

24°C / 11°C

[Viac]
Vietor 20º 5kt
Viditeľnosť >10km
Počasie -
Oblaky Scattered Clouds 8000ft
Tlak
Change -
Raw KTPF 090155Z AUTO 02005KT 10SM SCT080 BKN100 OVC110 24/11 A3009 RMK AO2

VFR

24°C / 11°C

[Viac]
Vietor 10º 6kt
Viditeľnosť >10km
Počasie -
Oblaky Overcast 10000ft
Tlak
Change -
Raw KTPF 090135Z AUTO 01006KT 10SM OVC100 24/11 A3009 RMK AO2

VFR

25°C / 10°C

[Viac]
Vietor 10º 6kt
Viditeľnosť >10km
Počasie -
Oblaky Broken Clouds 9000ft
Tlak
Change -
Raw KTPF 090115Z AUTO 01006KT 10SM BKN090 OVC120 25/10 A3008 RMK AO2

VFR

25°C / 10°C

[Viac]
Vietor 10º 5kt
Viditeľnosť >10km
Počasie -
Oblaky Broken Clouds 9000ft
Tlak
Change -
Raw KTPF 090055Z AUTO 01005KT 10SM BKN090 OVC120 25/10 A3008 RMK AO2

VFR

25°C / 10°C

[Viac]
Vietor 360º 7kt
Viditeľnosť >10km
Počasie -
Oblaky Scattered Clouds 7000ft
Tlak
Change -
Raw KTPF 090035Z AUTO 36007KT 10SM SCT070 BKN100 OVC120 25/10 A3008 RMK AO2

VFR

25°C / 10°C

[Viac]
Vietor 360º 6kt
Viditeľnosť >10km
Počasie -
Oblaky Overcast 11000ft
Tlak
Change -
Raw KTPF 090015Z AUTO 36006KT 10SM OVC110 25/10 A3007 RMK AO2

VFR

26°C / 10°C

[Viac]
Vietor 350º 7kt
Viditeľnosť >10km
Počasie -
Oblaky Overcast 11000ft
Tlak
Change -
Raw KTPF 082355Z AUTO 35007KT 10SM OVC110 26/10 A3006 RMK AO2

VFR

27°C / 11°C

[Viac]
Vietor 330º 6kt
Viditeľnosť >10km
Počasie -
Oblaky Overcast 10000ft
Tlak
Change -
Raw KTPF 082335Z AUTO 33006KT 10SM OVC100 27/11 A3006 RMK AO2

VFR

28°C / 11°C

[Viac]
Vietor 320º 7kt
Viditeľnosť >10km
Počasie -
Oblaky Overcast 11000ft
Tlak
Change -
Raw KTPF 082315Z AUTO 32007KT 10SM OVC110 28/11 A3005 RMK AO2

VFR

28°C / 12°C

[Viac]
Vietor 300º 4kt
Viditeľnosť >10km
Počasie -
Oblaky Broken Clouds 11000ft
Tlak
Change -
Raw KTPF 082255Z AUTO 30004KT 10SM BKN110 28/12 A3005 RMK AO2

VFR

29°C / 12°C

[Viac]
Vietor 280º 6kt
Viditeľnosť >10km
Počasie -
Oblaky Scattered Clouds 9500ft
Tlak
Change -
Raw KTPF 082235Z AUTO 28006KT 10SM SCT095 BKN110 29/12 A3004 RMK AO2

VFR

29°C / 12°C

[Viac]
Vietor 280º 6kt
Viditeľnosť >10km
Počasie -
Oblaky Overcast 11000ft
Tlak
Change -
Raw KTPF 082215Z AUTO 28006KT 10SM OVC110 29/12 A3004 RMK AO2

VFR

30°C / 12°C

[Viac]
Vietor 280º 6kt
Viditeľnosť >10km
Počasie -
Oblaky Broken Clouds 11000ft
Tlak
Change -
Raw KTPF 082155Z AUTO 28006KT 10SM BKN110 30/12 A3005 RMK AO2

VFR

30°C / 12°C

[Viac]
Vietor 280º 7kt
Viditeľnosť >10km
Počasie -
Oblaky Scattered Clouds 8000ft
Tlak
Change -
Raw KTPF 082135Z AUTO 28007KT 10SM SCT080 BKN095 OVC110 30/12 A3005 RMK AO2

VFR

30°C / 11°C

[Viac]
Vietor 270º 7kt
Viditeľnosť >10km
Počasie -
Oblaky Scattered Clouds 7500ft
Tlak
Change -
Raw KTPF 082115Z AUTO 27007KT 10SM SCT075 BKN095 OVC110 30/11 A3005 RMK AO2

VFR

30°C / 11°C

[Viac]
Vietor 260º 6kt
Viditeľnosť >10km
Počasie -
Oblaky Overcast 9500ft
Tlak
Change -
Raw KTPF 082055Z AUTO 26006KT 10SM OVC095 30/11 A3005 RMK AO2

VFR

31°C / 11°C

[Viac]
Vietor 250º 4kt
Viditeľnosť >10km
Počasie -
Oblaky Overcast 10000ft
Tlak
Change -
Raw KTPF 082035Z AUTO 25004KT 10SM OVC100 31/11 A3005 RMK AO2

VFR

31°C / 11°C

[Viac]
Vietor 220º 3kt
Viditeľnosť >10km
Počasie -
Oblaky Overcast 10000ft
Tlak
Change -
Raw KTPF 082015Z AUTO 22003KT 10SM OVC100 31/11 A3005 RMK AO2

VFR

31°C / 10°C

[Viac]
Vietor variable 0kt
Viditeľnosť >10km
Počasie -
Oblaky Overcast 10000ft
Tlak
Change -
Raw KTPF 081955Z AUTO 00000KT 10SM OVC100 31/10 A3006 RMK AO2

VFR

31°C / 9°C

[Viac]
Vietor 120º 5kt
Viditeľnosť >10km
Počasie -
Oblaky Overcast 9500ft
Tlak
Change -
Raw KTPF 081935Z AUTO 12005KT 10SM OVC095 31/09 A3006 RMK AO2

VFR

31°C / 10°C

[Viac]
Vietor 50º 6kt
Viditeľnosť >10km
Počasie -
Oblaky Broken Clouds 9500ft
Tlak
Change -
Raw KTPF 081915Z AUTO 05006KT 10SM BKN095 31/10 A3008 RMK AO2

VFR

31°C / 11°C

[Viac]
Vietor variable 0kt
Viditeľnosť >10km
Počasie -
Oblaky Scattered Clouds 9500ft
Tlak
Change -
Raw KTPF 081855Z AUTO 00000KT 10SM SCT095 31/11 A3009 RMK AO2

VFR

31°C / 12°C

[Viac]
Vietor 220º 6kt
Viditeľnosť >10km
Počasie -
Oblaky Broken Clouds 9500ft
Tlak
Change -
Raw KTPF 081835Z AUTO 22006KT 10SM BKN095 OVC120 31/12 A3009 RMK AO2

VFR

30°C / 11°C

[Viac]
Vietor 200º 4kt
Viditeľnosť >10km
Počasie -
Oblaky Scattered Clouds 7000ft
Tlak
Change -
Raw KTPF 081815Z AUTO 20004KT 10SM SCT070 OVC095 30/11 A3010 RMK AO2

Current satellite images for Tampa, Spojené štáty americké

Značka polohy je umiestnená naTampa. [Viac]

The real-time satellite image combines visible light during daytime with infrared radiation during nighttime. At night, the image is not dark as infrared radiation can detect temperature differences. Unfortunately, low clouds and fog are difficult to distinguish from ground temperatures and thus can be almost invisible during the night. Meteosat satellite images for Europe are updated in real-time every 5 minutes. GOES-16/GOES-17 (North & South America) and Himawari (Asia) images update every 10 minutes.

Radar a krátkodobá predpoveď zrážok pre Tampa

Značka polohy je umiestnená na Tampa. Táto animácia ukazuje zrážky pozorované radarom za poslednú hodinu a tiež 1h predpoveď. Mrholenie alebo slabé sneženie môžu byť pre radar neviditeľné. Intenzita zrážokje určená farebným kódom od svetlomodrej po tmavofialovú.